Flight Track Log - Related Links

Times and Time Zones

All times are in EDT time to prevent confusion due to time zone crossing. See the UPS1121 flight status page for this flight to view local times or setup timezone preferences in your user account.

Time Position Orientation Groundspeed Altitude Reporting Facility
EDT Latitude Longitude Course Direction KTS MPH feet Rate Location/Type
Wed 09:57:26 PM 41.9333 -72.6969 217° Southwest 124 143 1,000  Level Boston Center
Wed 09:58:27 PM 41.8894 -72.7411 217° Southwest 217 250 3,000 2,607 Climbing Boston Center
Wed 09:59:51 PM 41.8000 -72.6878 156° South 281 323 7,300 2,423 Climbing Boston Center
Wed 10:05:28 PM 41.2890 -72.6730 156° South 380 437 20,000 2,048 Climbing FlightAware ADS-B
Wed 10:06:03 PM 41.2330 -72.6930 195° South 383 441 20,000  Level FlightAware ADS-B
Wed 10:06:38 PM 41.1750 -72.7130 195° South 383 441 20,000  Level FlightAware ADS-B
Wed 10:07:13 PM 41.1080 -72.7360 195° South 384 442 20,000  Level FlightAware ADS-B
Wed 10:07:48 PM 41.0490 -72.7570 195° South 385 443 20,000  Level FlightAware ADS-B
Wed 10:08:03 PM 41.0203 -72.7668 194° South 20,000  Level FlightAware ADS-B
Wed 10:08:09 PM 41.0094 -72.7706 195° South 384 442 20,000  Level FlightAware ADS-B
Wed 10:09:00 PM 40.9310 -72.8010 196° South 381 438 20,000  Level FlightAware ADS-B
Wed 10:09:13 PM 40.9028 -72.8188 206° Southwest 384 442 20,000  Level FlightAware ADS-B
Wed 10:09:20 PM 40.8922 -72.8267 209° Southwest 375 432 20,000  Level FlightAware ADS-B
Wed 10:09:52 PM 40.8435 -72.8625 209° Southwest 376 433 20,000  Level FlightAware ADS-B
Wed 10:10:23 PM 40.7964 -72.8969 209° Southwest 376 433 20,000  Level FlightAware ADS-B
Wed 10:10:54 PM 40.7493 -72.9311 209° Southwest 377 434 20,000  Level FlightAware ADS-B
Wed 10:11:25 PM 40.7033 -72.9645 209° Southwest 377 434 20,000  Level FlightAware ADS-B
Wed 10:11:56 PM 40.6551 -72.9996 209° Southwest 378 435 20,000  Level FlightAware ADS-B
Wed 10:12:26 PM 40.6089 -73.0331 209° Southwest 379 436 20,000  Level FlightAware ADS-B
Wed 10:12:57 PM 40.5620 -73.0672 209° Southwest 380 437 20,000  Level FlightAware ADS-B
Wed 10:13:28 PM 40.5138 -73.1022 209° Southwest 380 437 20,000  Level FlightAware ADS-B
Wed 10:14:02 PM 40.4622 -73.1395 209° Southwest 382 440 20,000  Level FlightAware ADS-B
Wed 10:14:36 PM 40.4099 -73.1772 209° Southwest 382 440 20,000  Level FlightAware ADS-B
Wed 10:15:06 PM 40.3629 -73.2111 209° Southwest 381 438 20,000  Level FlightAware ADS-B
Wed 10:15:37 PM 40.3154 -73.2454 209° Southwest 381 438 20,000  Level FlightAware ADS-B
Wed 10:16:08 PM 40.2674 -73.2799 209° Southwest 380 437 20,000  Level FlightAware ADS-B
Wed 10:16:40 PM 40.2174 -73.3158 209° Southwest 381 438 20,000  Level FlightAware ADS-B
Wed 10:17:13 PM 40.1675 -73.3517 209° Southwest 380 437 20,000  Level FlightAware ADS-B
Wed 10:17:43 PM 40.1210 -73.3851 209° Southwest 381 438 20,000  Level FlightAware ADS-B
Wed 10:18:14 PM 40.0731 -73.4194 209° Southwest 381 438 20,000  Level FlightAware ADS-B
Wed 10:18:54 PM 40.0107 -73.4641 209° Southwest 381 438 20,000  Level FlightAware ADS-B
Wed 10:19:25 PM 39.9638 -73.4977 209° Southwest 380 437 20,000  Level FlightAware ADS-B
Wed 10:19:47 PM 39.9297 -73.5223 209° Southwest 380 437 20,000  Level FlightAware ADS-B
Wed 10:20:02 PM 39.9081 -73.5417 215° Southwest 376 433 20,000  Level FlightAware ADS-B
Wed 10:20:16 PM 39.8905 -73.5627 222° Southwest 373 429 20,000  Level FlightAware ADS-B
Wed 10:20:28 PM 39.8772 -73.5827 229° Southwest 372 428 20,000  Level FlightAware ADS-B
Wed 10:20:59 PM 39.8431 -73.6368 231° Southwest 373 429 20,000  Level FlightAware ADS-B
Wed 10:21:34 PM 39.8048 -73.6978 231° Southwest 374 430 20,000  Level FlightAware ADS-B
Wed 10:22:04 PM 39.7712 -73.7510 231° Southwest 374 430 20,000  Level FlightAware ADS-B
Wed 10:22:36 PM 39.7361 -73.8065 231° Southwest 373 429 20,000  Level FlightAware ADS-B
Wed 10:23:07 PM 39.7028 -73.8589 230° Southwest 374 430 20,000 -295 Level FlightAware ADS-B
Wed 10:23:37 PM 39.6697 -73.9111 231° Southwest 376 433 19,700 -1,600 Descending FlightAware ADS-B
Wed 10:24:07 PM 39.6363 -73.9634 230° Southwest 371 427 18,400 -2,613 Descending FlightAware ADS-B
Wed 10:24:39 PM 39.6016 -74.0176 230° Southwest 370 426 17,000 -2,667 Descending FlightAware ADS-B
Wed 10:25:10 PM 39.5676 -74.0709 230° Southwest 365 420 15,600 -2,706 Descending FlightAware ADS-B
Wed 10:25:30 PM 39.5463 -74.1047 231° Southwest 362 417 14,700 -2,600 Descending FlightAware ADS-B
Wed 10:25:40 PM 39.5378 -74.1222 238° Southwest 359 413 14,300 -2,571 Descending FlightAware ADS-B
Wed 10:25:44 PM 39.5346 -74.1307 244° Southwest 357 411 14,100 -2,000 Descending FlightAware ADS-B
Wed 10:25:49 PM 39.5318 -74.1398 248° West 354 407 14,000 -1,412 Descending FlightAware ADS-B
Wed 10:26:01 PM 39.5270 -74.1646 256° West 346 398 13,700 -1,102 Descending FlightAware ADS-B
Wed 10:26:38 PM 39.5267 -74.2407 270° West 341 392 13,100 -990 Descending FlightAware ADS-B
Wed 10:27:38 PM 39.5290 -74.3635 271° West 344 396 12,100 -1,000 Descending FlightAware ADS-B
Wed 10:28:20 PM 39.5300 -74.4410 271° West 336 387 11,400 -1,000 Descending FlightAware ADS-B
Wed 10:28:44 PM 39.5305 -74.4963 271° West 334 384 11,000 -1,053 Descending FlightAware ADS-B
Wed 10:29:17 PM 39.5313 -74.5584 271° West 307 353 10,400 -923 Descending FlightAware ADS-B
Wed 10:29:49 PM 39.5322 -74.6143 271° West 287 330 10,000 -643 Descending FlightAware ADS-B
Wed 10:30:13 PM 39.5329 -74.6533 271° West 270 311 9,800 -769 Descending FlightAware ADS-B
Wed 10:30:28 PM 39.5332 -74.6765 271° West 258 297 9,500 -1,000 Descending FlightAware ADS-B
Wed 10:30:43 PM 39.5337 -74.7011 272° West 267 307 9,300 -774 Descending FlightAware ADS-B
Wed 10:30:59 PM 39.5339 -74.7260 271° West 271 312 9,100 -774 Descending FlightAware ADS-B
Wed 10:31:14 PM 39.5341 -74.7507 271° West 271 312 8,900 -400 Descending FlightAware ADS-B
Wed 10:31:29 PM 39.5343 -74.7750 271° West 269 310 8,900  Level FlightAware ADS-B
Wed 10:31:45 PM 39.5346 -74.8005 271° West 270 311 8,900  Level FlightAware ADS-B
Wed 10:32:00 PM 39.5349 -74.8248 271° West 270 311 8,900  Level FlightAware ADS-B
Wed 10:32:16 PM 39.5351 -74.8511 271° West 270 311 8,900  Level FlightAware ADS-B
Wed 10:32:32 PM 39.5355 -74.8760 271° West 268 308 8,900 -387 Level FlightAware ADS-B
Wed 10:32:47 PM 39.5360 -74.9017 271° West 267 307 8,700 -968 Descending FlightAware ADS-B
Wed 10:33:03 PM 39.5365 -74.9268 271° West 267 307 8,400 -1,143 Descending FlightAware ADS-B
Wed 10:33:08 PM 39.5367 -74.9354 272° West 266 306 8,300 -1,200 Descending FlightAware ADS-B
Wed 10:33:13 PM 39.5371 -74.9427 274° West 264 304 8,200 -1,800 Descending FlightAware ADS-B
Wed 10:33:18 PM 39.5382 -74.9498 281° West 264 304 8,000 -2,000 Descending FlightAware ADS-B
Wed 10:33:22 PM 39.5398 -74.9565 287° West 263 303 7,900 -1,714 Descending FlightAware ADS-B
Wed 10:33:25 PM 39.5416 -74.9614 295° West 263 303 7,800 -857 Descending FlightAware ADS-B
Wed 10:33:29 PM 39.5438 -74.9663 300° West 262 302 7,800 -857 Level FlightAware ADS-B
Wed 10:33:32 PM 39.5460 -74.9704 305° West 262 302 7,700 -1,714 Descending FlightAware ADS-B
Wed 10:33:36 PM 39.5491 -74.9750 311° West 262 302 7,600 -2,000 Descending FlightAware ADS-B
Wed 10:33:41 PM 39.5536 -74.9803 318° Northwest 263 303 7,400 -1,800 Descending FlightAware ADS-B
Wed 10:33:46 PM 39.5581 -74.9846 324° Northwest 263 303 7,300 -1,385 Descending FlightAware ADS-B
Wed 10:33:54 PM 39.5662 -74.9916 326° Northwest 263 303 7,100 -727 Descending FlightAware ADS-B
Wed 10:34:19 PM 39.5942 -75.0141 328° Northwest 265 305 6,900 -293 Descending FlightAware ADS-B
Wed 10:34:35 PM 39.6105 -75.0275 328° Northwest 267 307 6,900  Level FlightAware ADS-B
Wed 10:34:50 PM 39.6262 -75.0408 327° Northwest 266 306 6,900 -194 Level FlightAware ADS-B
Wed 10:35:06 PM 39.6409 -75.0534 327° Northwest 263 303 6,800 -720 Descending FlightAware ADS-B
Wed 10:35:15 PM 39.6501 -75.0610 328° Northwest 262 302 6,600 -1,355 Descending FlightAware ADS-B
Wed 10:35:37 PM 39.6753 -75.0720 341° North 261 300 6,100 -1,269 Descending FlightAware ADS-B
Wed 10:36:07 PM 39.7112 -75.0764 355° North 258 297 5,500 -1,167 Descending FlightAware ADS-B
Wed 10:36:13 PM 39.7175 -75.0770 356° North 247 284 5,400 -1,304 Descending FlightAware ADS-B
Wed 10:36:30 PM 39.7370 -75.0791 355° North 243 280 5,000 -1,412 Descending FlightAware ADS-B
Wed 10:36:47 PM 39.7556 -75.0813 355° North 242 278 4,600 -1,588 Descending FlightAware ADS-B
Wed 10:37:04 PM 39.7739 -75.0835 355° North 243 280 4,100 -1,714 Descending FlightAware ADS-B
Wed 10:37:08 PM 39.7784 -75.0836 359° North 243 280 4,000 -857 Descending FlightAware ADS-B
Wed 10:37:11 PM 39.7818 -75.0833 North 244 281 4,000 -1,000 Level FlightAware ADS-B
Wed 10:37:14 PM 39.7858 -75.0823 11° North 246 283 3,900 -667 Descending FlightAware ADS-B
Wed 10:37:20 PM 39.7918 -75.0797 18° North 243 280 3,900  Level FlightAware ADS-B
Wed 10:37:24 PM 39.7961 -75.0767 28° Northeast 241 277 3,900  Level FlightAware ADS-B
Wed 10:37:28 PM 39.7993 -75.0737 36° Northeast 240 276 3,900  Level FlightAware ADS-B
Wed 10:37:31 PM 39.8018 -75.0708 42° Northeast 238 274 3,900  Level FlightAware ADS-B
Wed 10:37:35 PM 39.8048 -75.0663 49° Northeast 237 273 3,900  Level FlightAware ADS-B
Wed 10:37:38 PM 39.8068 -75.0626 55° Northeast 236 272 3,900  Level FlightAware ADS-B
Wed 10:37:59 PM 39.8143 -75.0353 70° East 224 258 3,900  Level FlightAware ADS-B
Wed 10:38:13 PM 39.8179 -75.0181 75° East 213 245 3,900  Level FlightAware ADS-B
Wed 10:38:24 PM 39.8206 -75.0052 75° East 208 239 3,900  Level FlightAware ADS-B
Wed 10:38:39 PM 39.8246 -74.9871 74° East 206 237 3,900  Level FlightAware ADS-B
Wed 10:38:54 PM 39.8287 -74.9692 73° East 204 235 3,900  Level FlightAware ADS-B
Wed 10:38:59 PM 39.8300 -74.9644 71° East 203 234 3,900  Level FlightAware ADS-B
Wed 10:39:02 PM 39.8314 -74.9601 67° East 200 230 3,900  Level FlightAware ADS-B
Wed 10:39:12 PM 39.8365 -74.9517 52° Northeast 191 220 3,900  Level FlightAware ADS-B
Wed 10:39:15 PM 39.8390 -74.9493 36° Northeast 188 216 3,900 -600 Level FlightAware ADS-B
Wed 10:39:22 PM 39.8447 -74.9462 23° Northeast 181 208 3,800 -500 Descending FlightAware ADS-B
Wed 10:39:27 PM 39.8489 -74.9455 North 177 204 3,800 -500 Level FlightAware ADS-B
Wed 10:39:34 PM 39.8540 -74.9459 357° North 175 201 3,700 -1,000 Descending FlightAware ADS-B
Wed 10:39:39 PM 39.8587 -74.9468 352° North 173 199 3,600 -1,091 Descending FlightAware ADS-B
Wed 10:39:56 PM 39.8717 -74.9503 348° North 168 193 3,300 -889 Descending FlightAware ADS-B
Wed 10:40:06 PM 39.8795 -74.9526 347° North 161 185 3,200 -429 Descending FlightAware ADS-B
Wed 10:40:10 PM 39.8820 -74.9534 346° North 160 184 3,200 -750 Level FlightAware ADS-B
Wed 10:40:14 PM 39.8848 -74.9548 339° North 158 182 3,100 -600 Descending FlightAware ADS-B
Wed 10:40:20 PM 39.8886 -74.9574 332° Northwest 154 177 3,100 -600 Level FlightAware ADS-B
Wed 10:40:24 PM 39.8912 -74.9598 325° Northwest 154 177 3,000 -750 Descending FlightAware ADS-B
Wed 10:40:28 PM 39.8932 -74.9621 319° Northwest 153 176 3,000 -500 Level FlightAware ADS-B
Wed 10:40:36 PM 39.8969 -74.9675 312° West 151 174 2,900 -500 Descending FlightAware ADS-B
Wed 10:40:40 PM 39.8985 -74.9704 306° West 153 176 2,900  Level FlightAware ADS-B
Wed 10:40:44 PM 39.9001 -74.9736 303° West 155 178 2,900 -600 Level FlightAware ADS-B
Wed 10:40:50 PM 39.9021 -74.9786 298° West 157 181 2,800 -571 Descending FlightAware ADS-B
Wed 10:41:05 PM 39.9068 -74.9916 295° West 158 182 2,700 -250 Descending FlightAware ADS-B
Wed 10:41:14 PM 39.9092 -74.9996 291° West 160 184 2,700  Level FlightAware ADS-B
Wed 10:41:20 PM 39.9104 -75.0048 287° West 160 184 2,700 -462 Level FlightAware ADS-B
Wed 10:41:27 PM 39.9117 -75.0117 284° West 159 183 2,600 -462 Descending FlightAware ADS-B
Wed 10:41:33 PM 39.9125 -75.0178 280° West 160 184 2,600  Level FlightAware ADS-B
Wed 10:41:38 PM 39.9129 -75.0218 277° West 161 185 2,600  Level FlightAware ADS-B
Wed 10:41:42 PM 39.9129 -75.0261 270° West 161 185 2,600 -300 Level FlightAware ADS-B
Wed 10:41:58 PM 39.9110 -75.0417 261° West 162 186 2,500 -316 Descending FlightAware ADS-B
Wed 10:42:01 PM 39.9104 -75.0448 256° West 165 190 2,500 -300 Level FlightAware ADS-B
Wed 10:42:18 PM 39.9073 -75.0607 256° West 164 189 2,400 -563 Descending FlightAware ADS-B
Wed 10:42:33 PM 39.9045 -75.0753 256° West 165 190 2,200 -774 Descending FlightAware ADS-B
Wed 10:42:49 PM 39.9016 -75.0898 255° West 153 176 2,000 -828 Descending FlightAware ADS-B
Wed 10:43:02 PM 39.8994 -75.1010 256° West 148 170 1,800 -828 Descending FlightAware ADS-B
Wed 10:43:18 PM 39.8967 -75.1145 255° West 141 162 1,600 -750 Descending FlightAware ADS-B
Wed 10:43:34 PM 39.8940 -75.1274 255° West 128 147 1,400 -750 Descending FlightAware ADS-B
Wed 10:43:42 PM 39.8929 -75.1331 256° West 122 140 1,300 -462 Descending FlightAware ADS-B
Wed 10:43:47 PM 39.8921 -75.1366 253° West 120 138 1,300 -667 Level FlightAware ADS-B
Wed 10:44:00 PM 39.8905 -75.1454 257° West 115 132 1,100 -571 Descending FlightAware ADS-B
Wed 10:44:08 PM 39.8894 -75.1508 255° West 114 131 1,100 -400 Level FlightAware ADS-B
Wed 10:44:15 PM 39.8884 -75.1559 256° West 114 131 1,000 -720 Descending FlightAware ADS-B
Wed 10:44:33 PM 39.8862 -75.1672 256° West 114 131 800 -750 Descending FlightAware ADS-B
Wed 10:44:39 PM 39.8853 -75.1719 256° West 115 132 700 -750 Descending FlightAware ADS-B
Wed 10:44:49 PM 39.8840 -75.1785 256° West 114 131 600 -571 Descending FlightAware ADS-B
Wed 10:45:00 PM 39.8826 -75.1860 256° West 115 132 500 -462 Descending FlightAware ADS-B
Wed 10:45:15 PM 39.8807 -75.1956 256° West 115 132 400 -600 Descending FlightAware ADS-B
Wed 10:45:30 PM 39.8786 -75.2057 255° West 114 131 200 -800 Descending FlightAware ADS-B

Login

Don't have an account? Register now (free) for customized features, flight alerts, and more!